createdAt,value
2023-07-06T00:00:02.907Z,15.90
2023-07-06T00:01:03.579Z,15.80
2023-07-06T00:02:03.330Z,15.80
2023-07-06T00:03:03.127Z,15.80
2023-07-06T00:04:02.642Z,15.80
2023-07-06T00:05:03.264Z,15.80
2023-07-06T00:06:03.280Z,15.80
2023-07-06T00:07:03.054Z,15.70
2023-07-06T00:08:02.659Z,15.70
2023-07-06T00:09:03.419Z,15.70
2023-07-06T00:10:03.181Z,15.60
2023-07-06T00:11:02.996Z,15.60
2023-07-06T00:12:02.708Z,15.60
2023-07-06T00:13:03.003Z,15.60
2023-07-06T00:14:02.973Z,15.60
2023-07-06T00:15:03.596Z,15.50
2023-07-06T00:16:03.495Z,15.50
2023-07-06T00:17:03.084Z,15.50
2023-07-06T00:18:02.685Z,15.50
2023-07-06T00:19:03.075Z,15.50
2023-07-06T00:20:03.208Z,15.50
2023-07-06T00:21:02.963Z,15.40
2023-07-06T00:22:03.591Z,15.40
2023-07-06T00:23:02.974Z,15.40
2023-07-06T00:24:02.942Z,15.30
2023-07-06T00:25:03.531Z,15.30
2023-07-06T00:26:03.271Z,15.30
2023-07-06T00:27:02.982Z,15.30
2023-07-06T00:28:03.617Z,15.20
2023-07-06T00:29:03.194Z,15.20
2023-07-06T00:30:02.992Z,15.20
2023-07-06T00:31:03.508Z,15.20
2023-07-06T00:32:03.011Z,15.20
2023-07-06T00:33:02.789Z,15.20
2023-07-06T00:34:03.356Z,15.10
2023-07-06T00:35:03.017Z,15.10
2023-07-06T00:36:03.359Z,15.10
2023-07-06T00:37:03.143Z,15.10
2023-07-06T00:38:03.584Z,15.10
2023-07-06T00:39:03.523Z,15.10
2023-07-06T00:40:03.150Z,15.10
2023-07-06T00:41:02.744Z,15.10
2023-07-06T00:42:03.446Z,15.10
2023-07-06T00:43:03.006Z,15.10
2023-07-06T00:44:02.853Z,15.00
2023-07-06T00:45:03.555Z,15.00
2023-07-06T00:46:03.033Z,15.00
2023-07-06T00:47:02.629Z,15.00
2023-07-06T00:48:02.975Z,15.00
2023-07-06T00:49:03.520Z,15.00
2023-07-06T00:50:03.151Z,15.00
2023-07-06T00:51:02.887Z,15.00
2023-07-06T00:52:03.498Z,15.00
2023-07-06T00:53:02.974Z,15.00
2023-07-06T00:54:02.665Z,15.00
2023-07-06T00:55:03.441Z,14.90
2023-07-06T00:56:03.026Z,14.90
2023-07-06T00:57:02.963Z,14.90
2023-07-06T00:58:02.836Z,14.90
2023-07-06T00:59:03.401Z,14.90
2023-07-06T01:00:03.039Z,14.90
2023-07-06T01:01:02.715Z,14.90
2023-07-06T01:02:03.360Z,14.90
2023-07-06T01:03:03.051Z,14.90
2023-07-06T01:04:02.653Z,14.90
2023-07-06T01:05:03.084Z,14.90
2023-07-06T01:06:02.843Z,14.90
2023-07-06T01:07:03.427Z,14.90
2023-07-06T01:08:02.925Z,14.90
2023-07-06T01:09:03.164Z,14.90
2023-07-06T01:10:03.071Z,14.90
2023-07-06T01:11:02.666Z,14.90
2023-07-06T01:12:02.926Z,14.90
2023-07-06T01:13:02.831Z,14.80
2023-07-06T01:14:02.982Z,14.80
2023-07-06T01:15:03.218Z,14.80
2023-07-06T01:16:02.792Z,14.80
2023-07-06T01:17:03.337Z,14.80
2023-07-06T01:18:02.982Z,14.90
2023-07-06T01:19:03.640Z,14.80
2023-07-06T01:20:02.706Z,14.90
2023-07-06T01:21:03.531Z,14.90
2023-07-06T01:22:02.893Z,14.80
2023-07-06T01:23:03.521Z,14.90
2023-07-06T01:24:03.215Z,14.90
2023-07-06T01:25:02.794Z,14.90
2023-07-06T01:26:03.539Z,14.90
2023-07-06T01:27:03.315Z,14.90
2023-07-06T01:28:03.618Z,14.90
2023-07-06T01:29:03.643Z,14.90
2023-07-06T01:30:03.169Z,14.90
2023-07-06T01:31:02.695Z,14.90
2023-07-06T01:32:03.493Z,14.90
2023-07-06T01:33:03.073Z,14.90
2023-07-06T01:34:02.696Z,14.80
2023-07-06T01:35:03.473Z,14.80
2023-07-06T01:36:02.975Z,14.80
2023-07-06T01:37:02.973Z,14.80
2023-07-06T01:38:03.545Z,14.80
2023-07-06T01:39:03.034Z,14.80
2023-07-06T01:40:03.115Z,14.70
2023-07-06T01:41:02.993Z,14.70
2023-07-06T01:42:03.088Z,14.70
2023-07-06T01:43:02.776Z,14.70
2023-07-06T01:44:03.285Z,14.70
2023-07-06T01:45:02.952Z,14.70
2023-07-06T01:46:02.729Z,14.70
2023-07-06T01:47:03.473Z,14.70
2023-07-06T01:48:03.082Z,14.70
2023-07-06T01:49:02.935Z,14.70
2023-07-06T01:50:03.440Z,14.60
2023-07-06T01:51:02.978Z,14.60
2023-07-06T01:52:03.088Z,14.60
2023-07-06T01:53:02.670Z,14.60
2023-07-06T01:54:03.375Z,14.60
2023-07-06T01:55:03.078Z,14.60
2023-07-06T01:56:03.015Z,14.60
2023-07-06T01:57:03.047Z,14.50
2023-07-06T01:58:02.892Z,14.50
2023-07-06T01:59:03.282Z,14.50
2023-07-06T02:00:03.068Z,14.50
2023-07-06T02:01:03.042Z,14.50
2023-07-06T02:02:02.737Z,14.50
2023-07-06T02:03:03.450Z,14.50
2023-07-06T02:04:03.589Z,14.50
2023-07-06T02:05:03.213Z,14.40
2023-07-06T02:06:02.777Z,14.40
2023-07-06T02:07:03.570Z,14.40
2023-07-06T02:08:03.184Z,14.40
2023-07-06T02:09:03.128Z,14.40
2023-07-06T02:10:02.801Z,14.40
2023-07-06T02:11:03.473Z,14.30
2023-07-06T02:12:02.816Z,14.30
2023-07-06T02:13:03.530Z,14.30
2023-07-06T02:14:03.506Z,14.30
2023-07-06T02:15:03.155Z,14.20
2023-07-06T02:16:02.610Z,14.20
2023-07-06T02:17:03.390Z,14.20
2023-07-06T02:18:03.252Z,14.20
2023-07-06T02:19:02.830Z,14.20
2023-07-06T02:20:03.007Z,14.20
2023-07-06T02:21:02.985Z,14.10
2023-07-06T02:22:03.116Z,14.10
2023-07-06T02:23:02.698Z,14.10
2023-07-06T02:24:03.033Z,14.10
2023-07-06T02:25:02.762Z,14.10
2023-07-06T02:26:03.356Z,14.10
2023-07-06T02:27:02.850Z,14.00
2023-07-06T02:28:03.049Z,14.00
2023-07-06T02:29:02.692Z,14.00
2023-07-06T02:30:03.074Z,14.00
2023-07-06T02:31:03.524Z,14.00
2023-07-06T02:32:03.143Z,13.90
2023-07-06T02:33:03.120Z,13.90
2023-07-06T02:34:02.986Z,13.90
2023-07-06T02:35:03.180Z,13.90
2023-07-06T02:36:02.944Z,13.90
2023-07-06T02:37:03.490Z,13.80
2023-07-06T02:38:03.244Z,13.80
2023-07-06T02:39:02.851Z,13.80
2023-07-06T02:40:02.769Z,13.80
2023-07-06T02:41:03.425Z,13.80
2023-07-06T02:42:03.145Z,13.80
2023-07-06T02:43:02.822Z,13.80
2023-07-06T02:44:03.396Z,13.70
2023-07-06T02:45:03.033Z,13.70
2023-07-06T02:46:03.037Z,13.70
2023-07-06T02:47:03.202Z,13.70
2023-07-06T02:48:03.389Z,13.70
2023-07-06T02:49:03.348Z,13.70
2023-07-06T02:50:02.745Z,13.60
2023-07-06T02:51:03.303Z,13.60
2023-07-06T02:52:03.008Z,13.60
2023-07-06T02:53:02.666Z,13.60
2023-07-06T02:54:03.602Z,13.60
2023-07-06T02:55:03.306Z,13.60
2023-07-06T02:56:03.423Z,13.60
2023-07-06T02:57:03.479Z,13.60
2023-07-06T02:58:03.071Z,13.60
2023-07-06T02:59:03.147Z,13.60
2023-07-06T03:00:03.660Z,13.60
2023-07-06T03:01:03.143Z,13.50
2023-07-06T03:02:02.747Z,13.50
2023-07-06T03:03:02.821Z,13.50
2023-07-06T03:04:03.428Z,13.50
2023-07-06T03:05:02.929Z,13.40
2023-07-06T03:06:03.767Z,13.40
2023-07-06T03:07:03.327Z,13.40
2023-07-06T03:08:02.991Z,13.40
2023-07-06T03:09:03.160Z,13.40
2023-07-06T03:10:02.673Z,13.40
2023-07-06T03:11:02.924Z,13.30
2023-07-06T03:12:03.493Z,13.30
2023-07-06T03:13:03.280Z,13.30
2023-07-06T03:14:03.185Z,13.30
2023-07-06T03:15:03.175Z,13.30
2023-07-06T03:16:03.047Z,13.30
2023-07-06T03:17:02.656Z,13.30
2023-07-06T03:18:03.355Z,13.30
2023-07-06T03:19:03.086Z,13.30
2023-07-06T03:20:03.178Z,13.30
2023-07-06T03:21:02.744Z,13.20
2023-07-06T03:22:03.348Z,13.30
2023-07-06T03:23:03.096Z,13.30
2023-07-06T03:24:02.667Z,13.20
2023-07-06T03:25:03.368Z,13.20
2023-07-06T03:26:03.080Z,13.20
2023-07-06T03:27:03.146Z,13.30
2023-07-06T03:28:02.858Z,13.30
2023-07-06T03:29:03.447Z,13.30
2023-07-06T03:30:02.917Z,13.30
2023-07-06T03:31:03.544Z,13.30
2023-07-06T03:32:03.323Z,13.30
2023-07-06T03:33:03.080Z,13.30
2023-07-06T03:34:03.274Z,13.30
2023-07-06T03:35:02.897Z,13.30
2023-07-06T03:36:03.560Z,13.30
2023-07-06T03:37:03.145Z,13.30
2023-07-06T03:38:02.879Z,13.30
2023-07-06T03:39:02.680Z,13.30
2023-07-06T03:40:03.164Z,13.30
2023-07-06T03:41:03.156Z,13.30
2023-07-06T03:42:02.906Z,13.30
2023-07-06T03:43:03.512Z,13.30
2023-07-06T03:44:03.150Z,13.30
2023-07-06T03:45:03.204Z,13.30
2023-07-06T03:46:02.722Z,13.30
2023-07-06T03:47:02.647Z,13.30
2023-07-06T03:48:03.269Z,13.30
2023-07-06T03:49:03.482Z,13.30
2023-07-06T03:50:03.083Z,13.30
2023-07-06T03:51:02.792Z,13.30
2023-07-06T03:52:03.416Z,13.30
2023-07-06T03:53:03.066Z,13.30
2023-07-06T03:54:03.213Z,13.30
2023-07-06T03:55:02.807Z,13.30
2023-07-06T03:56:03.409Z,13.30
2023-07-06T03:57:03.080Z,13.40
2023-07-06T03:58:04.889Z,13.40
2023-07-06T03:59:02.997Z,13.50
2023-07-06T04:00:03.115Z,13.60
2023-07-06T04:01:02.909Z,13.70
2023-07-06T04:02:03.149Z,13.90
2023-07-06T04:03:02.873Z,14.00
2023-07-06T04:04:02.805Z,14.10
2023-07-06T04:05:03.355Z,14.30
2023-07-06T04:06:03.010Z,14.50
2023-07-06T04:07:03.306Z,14.60
2023-07-06T04:08:03.092Z,14.80
2023-07-06T04:09:02.654Z,15.00
2023-07-06T04:10:03.155Z,15.10
2023-07-06T04:11:02.956Z,15.30
2023-07-06T04:12:02.704Z,15.50
2023-07-06T04:13:03.229Z,15.60
2023-07-06T04:14:02.893Z,15.80
2023-07-06T04:15:02.718Z,15.90
2023-07-06T04:16:03.247Z,16.10
2023-07-06T04:17:03.351Z,16.20
2023-07-06T04:18:02.993Z,16.40
2023-07-06T04:19:02.824Z,16.50
2023-07-06T04:20:03.580Z,16.60
2023-07-06T04:21:03.166Z,16.80
2023-07-06T04:22:02.799Z,16.90
2023-07-06T04:23:03.151Z,17.00
2023-07-06T04:24:02.960Z,17.20
2023-07-06T04:25:03.306Z,17.30
2023-07-06T04:26:03.142Z,17.40
2023-07-06T04:27:02.823Z,17.50
2023-07-06T04:28:03.486Z,17.60
2023-07-06T04:29:03.192Z,17.70
2023-07-06T04:30:02.766Z,17.90
2023-07-06T04:31:02.872Z,18.00
2023-07-06T04:32:03.511Z,18.10
2023-07-06T04:33:03.183Z,18.20
2023-07-06T04:34:03.239Z,18.30
2023-07-06T04:35:02.843Z,18.40
2023-07-06T04:36:02.865Z,18.50
2023-07-06T04:37:03.149Z,18.60
2023-07-06T04:38:02.893Z,18.70
2023-07-06T04:39:03.321Z,18.80
2023-07-06T04:40:02.933Z,18.90
2023-07-06T04:41:03.232Z,19.00
2023-07-06T04:42:03.132Z,19.10
2023-07-06T04:43:03.163Z,19.30
2023-07-06T04:44:02.930Z,19.40
2023-07-06T04:45:04.801Z,19.50
2023-07-06T04:46:02.978Z,19.60
2023-07-06T04:47:02.895Z,19.70
2023-07-06T04:48:03.191Z,19.80
2023-07-06T04:49:02.856Z,19.90
2023-07-06T04:50:03.221Z,20.00
2023-07-06T04:51:03.307Z,20.20
2023-07-06T04:52:03.215Z,20.30
2023-07-06T04:53:03.210Z,20.40
2023-07-06T04:54:02.942Z,20.50
2023-07-06T04:55:03.382Z,20.60
2023-07-06T04:56:03.309Z,20.70
2023-07-06T04:57:03.256Z,20.70
2023-07-06T04:58:03.201Z,20.80
2023-07-06T04:59:02.885Z,20.90
2023-07-06T05:00:03.400Z,21.00
2023-07-06T05:01:03.014Z,21.10
2023-07-06T05:02:02.879Z,21.10
2023-07-06T05:03:03.531Z,21.20
2023-07-06T05:04:02.802Z,21.20
2023-07-06T05:05:03.331Z,21.30
2023-07-06T05:06:03.010Z,21.40
2023-07-06T05:07:03.499Z,21.40
2023-07-06T05:08:03.096Z,21.50
2023-07-06T05:09:03.641Z,21.50
2023-07-06T05:10:03.239Z,21.50
2023-07-06T05:11:03.048Z,21.60
2023-07-06T05:12:03.330Z,21.60
2023-07-06T05:13:03.244Z,21.70
2023-07-06T05:14:02.889Z,21.70
2023-07-06T05:15:02.830Z,21.80
2023-07-06T05:16:03.281Z,21.70
2023-07-06T05:17:03.378Z,21.70
2023-07-06T05:18:03.027Z,21.60
2023-07-06T05:19:02.910Z,21.50
2023-07-06T05:20:03.192Z,21.40
2023-07-06T05:21:03.311Z,21.30
2023-07-06T05:22:02.861Z,21.30
2023-07-06T05:23:03.708Z,21.30
2023-07-06T05:24:03.330Z,21.30
2023-07-06T05:25:02.929Z,21.40
2023-07-06T05:26:03.187Z,21.50
2023-07-06T05:27:02.816Z,21.60
2023-07-06T05:28:03.360Z,21.70
2023-07-06T05:29:03.228Z,21.80
2023-07-06T05:30:02.709Z,22.00
2023-07-06T05:31:03.622Z,22.10
2023-07-06T05:32:03.619Z,22.30
2023-07-06T05:33:03.135Z,22.40
2023-07-06T05:34:02.881Z,22.50
2023-07-06T05:35:02.725Z,22.60
2023-07-06T05:36:03.313Z,22.80
2023-07-06T05:37:02.861Z,22.90
2023-07-06T05:38:03.480Z,23.00
2023-07-06T05:39:03.054Z,23.10
2023-07-06T05:40:02.810Z,23.20
2023-07-06T05:41:03.525Z,23.40
2023-07-06T05:42:03.167Z,23.50
2023-07-06T05:43:02.686Z,23.50
2023-07-06T05:44:03.291Z,23.60
2023-07-06T05:45:02.915Z,23.70
2023-07-06T05:46:03.526Z,23.80
2023-07-06T05:47:02.806Z,23.80
2023-07-06T05:48:02.887Z,23.90
2023-07-06T05:49:03.256Z,24.00
2023-07-06T05:50:03.234Z,24.10
2023-07-06T05:51:02.935Z,24.10
2023-07-06T05:52:03.431Z,24.20
2023-07-06T05:53:03.553Z,24.30
2023-07-06T05:54:05.074Z,24.40
2023-07-06T05:55:03.142Z,24.50
2023-07-06T05:56:03.279Z,24.50
2023-07-06T05:57:02.785Z,24.60
2023-07-06T05:58:03.191Z,24.70
2023-07-06T05:59:03.315Z,24.80
2023-07-06T06:00:02.870Z,24.80
2023-07-06T06:01:03.320Z,24.90
2023-07-06T06:02:03.348Z,25.00
2023-07-06T06:03:03.175Z,25.00
2023-07-06T06:04:02.982Z,25.10
2023-07-06T06:05:02.681Z,25.10
2023-07-06T06:06:03.295Z,25.10
2023-07-06T06:07:02.886Z,25.10
2023-07-06T06:08:03.432Z,25.20
2023-07-06T06:09:02.994Z,25.10
2023-07-06T06:10:03.527Z,25.20
2023-07-06T06:11:02.722Z,25.30
2023-07-06T06:12:03.222Z,25.30
2023-07-06T06:13:02.963Z,25.30
2023-07-06T06:14:03.550Z,25.30
2023-07-06T06:15:03.311Z,25.30
2023-07-06T06:16:02.927Z,25.40
2023-07-06T06:17:03.236Z,25.40
2023-07-06T06:18:02.949Z,25.40
2023-07-06T06:19:02.851Z,25.40
2023-07-06T06:20:03.212Z,25.40
2023-07-06T06:21:03.489Z,25.50
2023-07-06T06:22:03.063Z,25.50
2023-07-06T06:23:03.197Z,25.50
2023-07-06T06:24:02.921Z,25.50
2023-07-06T06:25:03.242Z,25.60
2023-07-06T06:26:03.331Z,25.60
2023-07-06T06:27:03.325Z,25.70
2023-07-06T06:28:03.469Z,25.70
2023-07-06T06:29:03.269Z,25.70
2023-07-06T06:30:03.387Z,25.80
2023-07-06T06:31:02.761Z,25.80
2023-07-06T06:32:03.368Z,25.80
2023-07-06T06:33:03.522Z,25.90
2023-07-06T06:34:03.516Z,25.90
2023-07-06T06:35:03.024Z,25.90
2023-07-06T06:36:02.644Z,25.90
2023-07-06T06:37:03.191Z,26.00
2023-07-06T06:38:02.817Z,26.00
2023-07-06T06:39:03.508Z,26.00
2023-07-06T06:40:03.001Z,26.00
2023-07-06T06:41:02.848Z,26.00
2023-07-06T06:42:03.332Z,26.00
2023-07-06T06:43:03.328Z,26.00
2023-07-06T06:44:03.489Z,26.00
2023-07-06T06:45:03.240Z,26.00
2023-07-06T06:46:02.742Z,26.00
2023-07-06T06:47:04.781Z,26.00
2023-07-06T06:48:03.164Z,26.00
2023-07-06T06:49:02.894Z,26.00
2023-07-06T06:50:03.296Z,26.10
2023-07-06T06:51:02.961Z,26.10
2023-07-06T06:52:03.240Z,26.10
2023-07-06T06:53:03.246Z,26.20
2023-07-06T06:54:02.930Z,26.20
2023-07-06T06:55:03.446Z,26.20
2023-07-06T06:56:03.416Z,26.20
2023-07-06T06:57:03.105Z,26.20
2023-07-06T06:58:02.785Z,26.20
2023-07-06T06:59:03.213Z,26.20
2023-07-06T07:00:03.005Z,26.20
2023-07-06T07:01:02.823Z,26.20
2023-07-06T07:02:04.312Z,26.20
2023-07-06T07:03:02.923Z,26.20
2023-07-06T07:04:03.338Z,26.20
2023-07-06T07:05:03.523Z,26.10
2023-07-06T07:06:03.242Z,26.10
2023-07-06T07:07:02.961Z,26.00
2023-07-06T07:08:03.416Z,26.00
2023-07-06T07:09:03.048Z,26.00
2023-07-06T07:10:02.717Z,26.00
2023-07-06T07:11:14.111Z,26.00
2023-07-06T07:12:03.279Z,26.00
2023-07-06T07:13:02.890Z,26.00
2023-07-06T07:14:03.641Z,26.00
2023-07-06T07:15:03.478Z,26.10
2023-07-06T07:16:03.358Z,26.10
2023-07-06T07:17:03.158Z,26.10
2023-07-06T07:18:03.023Z,26.10
2023-07-06T07:19:03.211Z,26.20
2023-07-06T07:20:03.357Z,26.20
2023-07-06T07:21:03.341Z,26.20
2023-07-06T07:22:02.977Z,26.20
2023-07-06T07:23:03.566Z,26.20
2023-07-06T07:24:03.460Z,26.20
2023-07-06T07:25:02.981Z,26.20
2023-07-06T07:26:02.652Z,26.20
2023-07-06T07:27:03.223Z,26.20
2023-07-06T07:28:03.278Z,26.20
2023-07-06T07:29:03.024Z,26.20
2023-07-06T07:30:03.632Z,26.20
2023-07-06T07:31:03.174Z,26.20
2023-07-06T07:32:03.544Z,26.20
2023-07-06T07:33:03.405Z,26.30
2023-07-06T07:34:03.374Z,26.30
2023-07-06T07:35:03.349Z,26.20
2023-07-06T07:36:03.520Z,26.20
2023-07-06T07:37:03.085Z,26.30
2023-07-06T07:38:02.911Z,26.20
2023-07-06T07:39:03.207Z,26.20
2023-07-06T07:40:02.725Z,26.20
2023-07-06T07:41:03.324Z,26.20
2023-07-06T07:42:03.541Z,26.20
2023-07-06T07:43:03.134Z,26.20
2023-07-06T07:44:03.095Z,26.10
2023-07-06T07:45:02.687Z,26.10
2023-07-06T07:46:03.235Z,26.10
2023-07-06T07:47:03.643Z,26.10
2023-07-06T07:48:03.094Z,26.10
2023-07-06T07:49:02.973Z,26.10
2023-07-06T07:50:03.556Z,26.10
2023-07-06T07:51:03.262Z,26.10
2023-07-06T07:52:02.783Z,26.20
2023-07-06T07:53:03.380Z,26.20
2023-07-06T07:54:03.010Z,26.20
2023-07-06T07:55:02.637Z,26.20
2023-07-06T07:56:03.211Z,26.20
2023-07-06T07:57:02.855Z,26.20
2023-07-06T07:58:03.453Z,26.30
2023-07-06T07:59:03.046Z,26.30
2023-07-06T08:00:02.682Z,26.30
2023-07-06T08:01:03.304Z,26.20
2023-07-06T08:02:03.152Z,26.20
2023-07-06T08:03:02.743Z,26.20
2023-07-06T08:04:03.500Z,26.20
2023-07-06T08:05:03.260Z,26.20
2023-07-06T08:06:02.828Z,26.20
2023-07-06T08:07:03.391Z,26.20
2023-07-06T08:08:03.076Z,26.20
2023-07-06T08:09:02.721Z,26.20
2023-07-06T08:10:03.387Z,26.20
2023-07-06T08:11:02.844Z,26.10
2023-07-06T08:12:03.510Z,26.10
2023-07-06T08:13:03.199Z,26.10
2023-07-06T08:14:03.326Z,26.10
2023-07-06T08:15:03.077Z,26.10
2023-07-06T08:16:02.833Z,26.00
2023-07-06T08:17:03.695Z,26.00
2023-07-06T08:18:03.383Z,26.00
2023-07-06T08:19:20.011Z,26.00
2023-07-06T08:20:22.706Z,25.90
2023-07-06T08:21:11.633Z,25.90
2023-07-06T08:22:09.861Z,25.90
2023-07-06T08:23:02.615Z,25.90
2023-07-06T08:24:03.255Z,26.00
2023-07-06T08:25:02.975Z,26.00
2023-07-06T08:26:03.511Z,26.00
2023-07-06T08:27:03.301Z,25.90
2023-07-06T08:28:03.001Z,25.90
2023-07-06T08:29:03.657Z,25.90
2023-07-06T08:30:03.227Z,25.80
2023-07-06T08:31:03.453Z,25.80
2023-07-06T08:32:03.583Z,25.80
2023-07-06T08:33:02.706Z,25.80
2023-07-06T08:34:03.277Z,25.80
2023-07-06T08:35:03.445Z,25.80
2023-07-06T08:36:02.993Z,25.70
2023-07-06T08:37:03.478Z,25.70
2023-07-06T08:38:03.433Z,25.70
2023-07-06T08:39:03.136Z,25.70
2023-07-06T08:40:02.799Z,25.60
2023-07-06T08:41:02.755Z,25.60
2023-07-06T08:42:03.393Z,25.50
2023-07-06T08:43:03.035Z,25.60
2023-07-06T08:44:03.102Z,25.60
2023-07-06T08:45:03.017Z,25.60
2023-07-06T08:46:03.632Z,25.60
2023-07-06T08:47:03.452Z,25.60
2023-07-06T08:48:03.048Z,25.60
2023-07-06T08:49:03.011Z,25.60
2023-07-06T08:50:02.844Z,25.60
2023-07-06T08:51:03.485Z,25.70
2023-07-06T08:52:03.087Z,25.70
2023-07-06T08:53:03.122Z,25.70
2023-07-06T08:54:02.696Z,25.80
2023-07-06T08:55:03.356Z,25.80
2023-07-06T08:56:02.899Z,25.80
2023-07-06T08:57:03.560Z,25.90
2023-07-06T08:58:03.208Z,25.90
2023-07-06T08:59:03.039Z,26.00
2023-07-06T09:00:03.571Z,26.00
2023-07-06T09:01:03.519Z,26.00
2023-07-06T09:02:03.352Z,26.10
2023-07-06T09:03:02.998Z,26.10
2023-07-06T09:04:02.887Z,26.20
2023-07-06T09:05:03.325Z,26.20
2023-07-06T09:06:02.898Z,26.30
2023-07-06T09:07:03.110Z,26.30
2023-07-06T09:08:02.671Z,26.30
2023-07-06T09:09:03.353Z,26.40
2023-07-06T09:10:18.553Z,26.40
2023-07-06T09:11:12.736Z,26.40
2023-07-06T09:12:02.852Z,26.40
2023-07-06T09:13:03.560Z,26.40
2023-07-06T09:14:03.216Z,26.40
2023-07-06T09:15:02.814Z,26.50
2023-07-06T09:16:02.696Z,26.50
2023-07-06T09:17:03.355Z,26.60
2023-07-06T09:18:03.301Z,26.60
2023-07-06T09:19:03.495Z,26.60
2023-07-06T09:20:03.481Z,26.60
2023-07-06T09:21:03.018Z,26.60
2023-07-06T09:22:02.734Z,26.60
2023-07-06T09:23:03.341Z,26.60
2023-07-06T09:24:02.954Z,26.60
2023-07-06T09:25:03.619Z,26.60
2023-07-06T09:26:03.669Z,26.60
2023-07-06T09:27:03.272Z,26.60
2023-07-06T09:28:03.052Z,26.70
2023-07-06T09:29:02.836Z,26.70
2023-07-06T09:30:03.415Z,26.60
2023-07-06T09:31:03.114Z,26.60
2023-07-06T09:32:03.042Z,26.50
2023-07-06T09:33:03.565Z,26.50
2023-07-06T09:34:03.541Z,26.40
2023-07-06T09:35:03.609Z,26.40
2023-07-06T09:36:03.310Z,26.30
2023-07-06T09:37:02.964Z,26.30
2023-07-06T09:38:03.574Z,26.20
2023-07-06T09:39:03.367Z,26.20
2023-07-06T09:40:02.855Z,26.20
2023-07-06T09:41:03.559Z,26.20
2023-07-06T09:42:03.451Z,26.10
2023-07-06T09:43:03.520Z,26.10
2023-07-06T09:44:03.484Z,26.00
2023-07-06T09:45:03.137Z,26.00
2023-07-06T09:46:03.368Z,25.90
2023-07-06T09:47:03.360Z,25.90
2023-07-06T09:48:03.251Z,25.90
2023-07-06T09:49:02.907Z,25.90
2023-07-06T09:50:02.769Z,25.90
2023-07-06T09:51:03.317Z,26.00
2023-07-06T09:52:02.725Z,26.00
2023-07-06T09:53:03.458Z,26.00
2023-07-06T09:54:03.503Z,26.00
2023-07-06T09:55:03.021Z,26.00
2023-07-06T09:56:02.796Z,26.00
2023-07-06T09:57:03.332Z,26.00
2023-07-06T09:58:02.970Z,26.00
2023-07-06T09:59:03.521Z,26.10
2023-07-06T10:00:03.221Z,26.10
2023-07-06T10:01:02.881Z,26.20
2023-07-06T10:02:03.404Z,26.20
2023-07-06T10:03:03.327Z,26.20
2023-07-06T10:04:02.673Z,26.20
2023-07-06T10:05:03.285Z,26.30
2023-07-06T10:06:03.052Z,26.30
2023-07-06T10:07:02.805Z,26.40
2023-07-06T10:08:03.468Z,26.40
2023-07-06T10:09:03.124Z,26.40
2023-07-06T10:10:02.765Z,26.50
2023-07-06T10:11:03.384Z,26.60
2023-07-06T10:12:03.144Z,26.60
2023-07-06T10:13:02.698Z,26.70
2023-07-06T10:14:03.323Z,26.70
2023-07-06T10:15:02.656Z,26.80
2023-07-06T10:16:03.397Z,26.80
2023-07-06T10:17:03.625Z,26.80
2023-07-06T10:18:03.151Z,26.90
2023-07-06T10:19:03.025Z,26.90
2023-07-06T10:20:02.703Z,27.00
2023-07-06T10:21:03.239Z,27.00
2023-07-06T10:22:03.430Z,27.10
2023-07-06T10:23:03.096Z,27.10
2023-07-06T10:24:03.429Z,27.10
2023-07-06T10:25:03.578Z,27.20
2023-07-06T10:26:03.762Z,27.20
2023-07-06T10:27:03.133Z,27.20
2023-07-06T10:28:02.729Z,27.20
2023-07-06T10:29:03.403Z,27.20
2023-07-06T10:30:04.744Z,27.30
2023-07-06T10:31:02.768Z,27.30
2023-07-06T10:32:03.477Z,27.30
2023-07-06T10:33:03.327Z,27.40
2023-07-06T10:34:03.025Z,27.40
2023-07-06T10:35:02.630Z,27.40
2023-07-06T10:36:03.308Z,27.40
2023-07-06T10:37:03.462Z,27.40
2023-07-06T10:38:02.804Z,27.30
2023-07-06T10:39:03.477Z,27.30
2023-07-06T10:40:03.169Z,27.30
2023-07-06T10:41:02.790Z,27.30
2023-07-06T10:42:03.588Z,27.30
2023-07-06T10:43:03.062Z,27.30
2023-07-06T10:44:02.689Z,27.30
2023-07-06T10:45:03.329Z,27.20
2023-07-06T10:46:02.923Z,27.10
2023-07-06T10:47:02.656Z,27.00
2023-07-06T10:48:03.386Z,26.90
2023-07-06T10:49:03.090Z,26.90
2023-07-06T10:50:03.599Z,26.80
2023-07-06T10:51:03.344Z,26.70
2023-07-06T10:52:02.746Z,26.70
2023-07-06T10:53:03.294Z,26.60
2023-07-06T10:54:03.004Z,26.50
2023-07-06T10:55:02.643Z,26.40
2023-07-06T10:56:03.290Z,26.40
2023-07-06T10:57:03.532Z,26.30
2023-07-06T10:58:03.329Z,26.30
2023-07-06T10:59:03.036Z,26.20
2023-07-06T11:00:03.610Z,26.20
2023-07-06T11:01:03.127Z,26.20
2023-07-06T11:02:02.740Z,26.20
2023-07-06T11:03:03.457Z,26.10
2023-07-06T11:04:03.296Z,26.10
2023-07-06T11:05:03.200Z,26.10
2023-07-06T11:06:03.586Z,26.00
2023-07-06T11:07:02.646Z,26.00
2023-07-06T11:08:02.813Z,25.90
2023-07-06T11:09:03.455Z,25.90
2023-07-06T11:10:03.127Z,25.80
2023-07-06T11:11:03.554Z,25.80
2023-07-06T11:12:03.289Z,25.80
2023-07-06T11:13:02.917Z,25.80
2023-07-06T11:14:03.589Z,25.80
2023-07-06T11:15:03.243Z,25.70
2023-07-06T11:16:06.236Z,25.70
2023-07-06T11:17:02.817Z,25.70
2023-07-06T11:18:03.583Z,25.70
2023-07-06T11:19:03.552Z,25.80
2023-07-06T11:20:03.573Z,25.80
2023-07-06T11:21:03.366Z,25.80
2023-07-06T11:22:03.127Z,25.90
2023-07-06T11:23:02.703Z,25.90
2023-07-06T11:24:03.294Z,25.90
2023-07-06T11:25:02.749Z,26.00
2023-07-06T11:26:03.380Z,26.10
2023-07-06T11:27:03.187Z,26.10
2023-07-06T11:28:02.904Z,26.10
2023-07-06T11:29:03.575Z,26.20
2023-07-06T11:30:03.358Z,26.20
2023-07-06T11:31:03.160Z,26.20
2023-07-06T11:32:02.631Z,26.30
2023-07-06T11:33:03.345Z,26.30
2023-07-06T11:34:02.746Z,26.30
2023-07-06T11:35:03.303Z,26.30
2023-07-06T11:36:02.905Z,26.20
2023-07-06T11:37:03.612Z,26.20
2023-07-06T11:38:03.368Z,26.10
2023-07-06T11:39:03.131Z,26.10
2023-07-06T11:40:03.562Z,26.10
2023-07-06T11:41:03.345Z,26.10
2023-07-06T11:42:02.954Z,26.10
2023-07-06T11:43:02.637Z,26.10
2023-07-06T11:44:03.280Z,26.10
2023-07-06T11:45:03.477Z,26.20
2023-07-06T11:46:02.900Z,26.20
2023-07-06T11:47:03.589Z,26.20
2023-07-06T11:48:03.377Z,26.20
2023-07-06T11:49:03.033Z,26.20
2023-07-06T11:50:03.129Z,26.20
2023-07-06T11:51:03.553Z,26.20
2023-07-06T11:52:03.167Z,26.30
2023-07-06T11:53:02.902Z,26.30
2023-07-06T11:54:03.439Z,26.40
2023-07-06T11:55:03.051Z,26.40
2023-07-06T11:56:02.667Z,26.50
2023-07-06T11:57:03.323Z,26.60
2023-07-06T11:58:03.030Z,26.60
2023-07-06T11:59:03.560Z,26.70
2023-07-06T12:00:02.684Z,26.80
2023-07-06T12:01:03.391Z,26.80
2023-07-06T12:02:03.161Z,26.90
2023-07-06T12:03:02.683Z,26.90
2023-07-06T12:04:03.447Z,27.00
2023-07-06T12:05:02.929Z,27.10
2023-07-06T12:06:02.875Z,27.10
2023-07-06T12:07:03.530Z,27.20
2023-07-06T12:08:03.316Z,27.20
2023-07-06T12:09:03.273Z,27.20
2023-07-06T12:10:03.008Z,27.20
2023-07-06T12:11:03.352Z,27.20
2023-07-06T12:12:03.009Z,27.20
2023-07-06T12:13:02.687Z,27.20
2023-07-06T12:14:03.353Z,27.20
2023-07-06T12:15:03.280Z,27.20
2023-07-06T12:16:03.037Z,27.10
2023-07-06T12:17:03.627Z,27.00
2023-07-06T12:18:04.231Z,27.00
2023-07-06T12:19:03.582Z,27.00
2023-07-06T12:20:02.622Z,26.90
2023-07-06T12:21:03.366Z,26.80
2023-07-06T12:22:03.143Z,26.80
2023-07-06T12:23:03.314Z,26.80
2023-07-06T12:24:02.886Z,26.70
2023-07-06T12:25:03.485Z,26.70
2023-07-06T12:26:02.621Z,26.70
2023-07-06T12:27:03.178Z,26.70
2023-07-06T12:28:03.611Z,26.70
2023-07-06T12:29:02.868Z,26.60
2023-07-06T12:30:03.493Z,26.60
2023-07-06T12:31:03.301Z,26.60
2023-07-06T12:32:02.671Z,26.60
2023-07-06T12:33:03.197Z,26.60
2023-07-06T12:34:02.855Z,26.60
2023-07-06T12:35:03.450Z,26.50
2023-07-06T12:36:03.121Z,26.50
2023-07-06T12:37:03.788Z,26.50
2023-07-06T12:38:03.449Z,26.60
2023-07-06T12:39:02.979Z,26.60
2023-07-06T12:40:03.257Z,26.60
2023-07-06T12:41:03.702Z,26.60
2023-07-06T12:42:03.576Z,26.60
2023-07-06T12:43:03.042Z,26.60
2023-07-06T12:44:03.455Z,26.50
2023-07-06T12:45:03.060Z,26.50
2023-07-06T12:46:02.662Z,26.50
2023-07-06T12:47:03.534Z,26.50
2023-07-06T12:48:02.772Z,26.40
2023-07-06T12:49:03.362Z,26.50
2023-07-06T12:50:03.602Z,26.40
2023-07-06T12:51:03.199Z,26.30
2023-07-06T12:52:03.026Z,26.30